Branchville, South Carolina
Current Conditions -  °F | °C
As of 6:53 AM on Saturday 20 Dec 2014 (Local Time) from KOGB Reporting Station
Light Rain Light Rain  
Wind Chill: 43°   Ceiling: 8000
Heat Index: 46°   Visibility: 9mi
Dew Point: 43°   Wind: 6mph
Humidity: 89%   Direction: 60°ENE
Pressure: 30.16"   Gusts: NA
Location:  33.25°N, 80.82°W
Report Text: KOGB 201153Z AUTO 06005KT 9SM -RA BKN080 OVC095 08/06 A3016 RMK AO2 SLP214 P0001 60004 70004 T00780061 10094 20078 51006
Loading
Personal Weather Stations






























Interactive Weather Map New forecast layout! Learn more

10-Day Weather Forecast

Advertisements
Track Severe Weather on mobile